Time;durP1;ratioP1;P1;durP2;ratioP2;P2;SDS_P1;SDS_P2;PMS_P1;PMS_P2;Temp;Humidity;BMP_temperature;BMP_pressure;BME280_temperature;BME280_humidity;BME280_pressure;Samples;Min_cycle;Max_cycle;Signal;HPM_P1;HPM_P2
2022/09/24 00:01:14;;;;;;;51.70;38.03;;;13.30;99.90;;;;;;4785701;29;20042;-82
2022/09/24 00:03:41;;;;;;;53.53;37.13;;;13.20;99.90;;;;;;4785069;29;20042;-83
2022/09/24 00:06:08;;;;;;;56.85;39.35;;;13.30;99.90;;;;;;4785033;29;20059;-82
2022/09/24 00:08:34;;;;;;;56.22;39.25;;;13.30;99.90;;;;;;4771541;29;20082;-82
2022/09/24 00:11:03;;;;;;;57.08;42.05;;;13.30;99.90;;;;;;4769939;29;20058;-83
2022/09/24 00:13:30;;;;;;;58.95;41.90;;;13.20;99.90;;;;;;4771038;29;20047;-83
2022/09/24 00:16:00;;;;;;;57.47;42.85;;;13.30;99.90;;;;;;4770346;29;20054;-83
2022/09/24 00:18:27;;;;;;;61.72;44.42;;;13.20;99.90;;;;;;4784598;29;20418;-83
2022/09/24 00:20:53;;;;;;;60.95;43.85;;;13.20;99.90;;;;;;4784667;29;20148;-83
2022/09/24 00:23:18;;;;;;;66.90;44.88;;;13.20;99.90;;;;;;4785327;29;20164;-82
2022/09/24 00:28:31;;;;;;;63.10;44.90;;;13.20;99.90;;;;;;4785499;29;20197;-82
2022/09/24 00:30:58;;;;;;;68.28;45.45;;;13.20;99.90;;;;;;4784956;29;20047;-82
2022/09/24 00:33:27;;;;;;;68.20;45.42;;;13.20;99.90;;;;;;4784762;29;20046;-82
2022/09/24 00:36:01;;;;;;;70.22;47.60;;;13.30;99.90;;;;;;4762210;29;20359;-82
2022/09/24 00:38:28;;;;;;;64.90;47.58;;;13.20;99.90;;;;;;4785658;29;20055;-83
2022/09/24 00:40:54;;;;;;;64.55;46.80;;;13.20;99.90;;;;;;4783784;29;20184;-82
2022/09/24 00:43:22;;;;;;;79.78;48.47;;;13.30;99.90;;;;;;4785246;29;20047;-82
2022/09/24 00:45:50;;;;;;;72.00;48.97;;;13.20;99.90;;;;;;4784026;29;20088;-82
2022/09/24 00:48:16;;;;;;;69.82;48.83;;;13.20;99.90;;;;;;4785278;29;20046;-82
2022/09/24 00:50:42;;;;;;;72.25;48.50;;;13.20;99.90;;;;;;4784308;29;20061;-82
2022/09/24 00:53:14;;;;;;;72.07;49.33;;;13.20;99.90;;;;;;4784482;29;20043;-82
2022/09/24 00:55:43;;;;;;;70.35;48.75;;;13.20;99.90;;;;;;4769696;29;20113;-82
2022/09/24 00:58:09;;;;;;;68.03;50.22;;;13.20;99.90;;;;;;4785337;29;20054;-82
2022/09/24 01:00:38;;;;;;;76.35;49.65;;;13.20;99.90;;;;;;4784540;29;20416;-82
2022/09/24 01:03:09;;;;;;;76.53;49.55;;;13.20;99.90;;;;;;4785628;29;20039;-82
2022/09/24 01:05:36;;;;;;;71.35;49.72;;;13.20;99.90;;;;;;4784437;29;20059;-82
2022/09/24 01:08:03;;;;;;;77.03;52.72;;;13.20;99.90;;;;;;4784374;29;20043;-82
2022/09/24 01:10:47;;;;;;;78.50;51.97;;;13.20;99.90;;;;;;4784797;29;20195;-82
2022/09/24 01:13:29;;;;;;;73.03;51.75;;;13.20;99.90;;;;;;4800253;29;20117;-82
2022/09/24 01:16:04;;;;;;;85.72;55.08;;;13.20;99.90;;;;;;4783918;29;20150;-82
2022/09/24 01:18:40;;;;;;;77.18;52.92;;;13.30;99.90;;;;;;4784949;29;20120;-82
2022/09/24 01:21:34;;;;;;;83.80;54.83;;;13.30;99.90;;;;;;4783505;29;20456;-82
2022/09/24 01:24:14;;;;;;;81.82;54.70;;;13.30;99.90;;;;;;4784825;29;20393;-83
2022/09/24 01:26:56;;;;;;;100.35;58.58;;;13.30;99.90;;;;;;4784105;29;20051;-84
2022/09/24 01:29:44;;;;;;;111.82;63.08;;;13.30;99.90;;;;;;4784685;29;20078;-83
2022/09/24 01:32:27;;;;;;;109.85;63.40;;;13.20;99.90;;;;;;4785209;29;20055;-84
2022/09/24 01:35:01;;;;;;;116.25;64.88;;;13.20;99.90;;;;;;4783367;29;20479;-85
2022/09/24 01:37:30;;;;;;;127.75;68.82;;;13.20;99.90;;;;;;4800630;29;21057;-84
2022/09/24 01:39:57;;;;;;;137.88;74.72;;;13.30;99.90;;;;;;4784190;29;20059;-84
2022/09/24 01:42:26;;;;;;;116.90;66.40;;;13.20;99.90;;;;;;4769585;29;20065;-84
2022/09/24 01:44:53;;;;;;;119.55;65.32;;;13.20;99.90;;;;;;4783970;29;20061;-84
2022/09/24 01:47:28;;;;;;;149.93;74.40;;;13.20;99.90;;;;;;4785434;29;20404;-84
2022/09/24 01:49:54;;;;;;;135.70;71.68;;;13.20;99.90;;;;;;4783057;29;20051;-83
2022/09/24 01:52:26;;;;;;;127.65;70.57;;;13.20;99.90;;;;;;4784968;29;20061;-84
2022/09/24 01:54:55;;;;;;;133.93;68.75;;;13.30;99.90;;;;;;4784343;29;20534;-83
2022/09/24 01:57:30;;;;;;;125.53;67.80;;;13.20;99.90;;;;;;4783808;29;20408;-84
2022/09/24 02:00:08;;;;;;;135.30;71.75;;;13.20;99.90;;;;;;4784252;29;20066;-83
2022/09/24 02:02:44;;;;;;;140.40;70.75;;;13.20;99.90;;;;;;4784856;29;20050;-84
2022/09/24 02:05:17;;;;;;;127.45;69.43;;;13.30;99.90;;;;;;4782728;29;20089;-84
2022/09/24 02:07:57;;;;;;;165.75;77.50;;;13.20;99.90;;;;;;4784625;29;20445;-83
2022/09/24 02:10:27;;;;;;;134.30;68.97;;;13.20;99.90;;;;;;4784355;29;20047;-83
2022/09/24 02:12:58;;;;;;;146.00;75.35;;;13.20;99.90;;;;;;4785226;29;20086;-84
2022/09/24 02:15:31;;;;;;;131.45;69.38;;;13.20;99.90;;;;;;4784283;29;20055;-84
2022/09/24 02:18:01;;;;;;;121.30;66.50;;;13.20;99.90;;;;;;4784240;29;20574;-83
2022/09/24 02:20:30;;;;;;;133.30;71.80;;;13.20;99.90;;;;;;4783638;29;20094;-84
2022/09/24 02:22:56;;;;;;;152.90;78.13;;;13.30;99.90;;;;;;4784946;29;20054;-84
2022/09/24 02:25:29;;;;;;;154.82;78.93;;;13.20;99.90;;;;;;4780268;30;20071;-84
2022/09/24 02:27:55;;;;;;;147.57;75.63;;;13.30;99.90;;;;;;4767141;30;20057;-84
2022/09/24 02:30:20;;;;;;;165.52;79.80;;;13.30;99.90;;;;;;4769837;30;20043;-85
2022/09/24 02:32:48;;;;;;;178.18;81.22;;;13.30;99.90;;;;;;4769472;30;20074;-84
2022/09/24 02:35:14;;;;;;;160.25;77.75;;;13.30;99.90;;;;;;4769018;30;20055;-84
2022/09/24 02:37:43;;;;;;;148.07;71.93;;;13.20;99.90;;;;;;4769882;30;20558;-84
2022/09/24 02:40:12;;;;;;;101.93;58.63;;;13.30;99.90;;;;;;4768867;30;20142;-84
2022/09/24 02:42:40;;;;;;;69.43;44.75;;;13.40;99.90;;;;;;4770354;30;20535;-83
2022/09/24 02:45:06;;;;;;;94.55;52.28;;;13.30;99.90;;;;;;4769406;30;20508;-83
2022/09/24 02:47:32;;;;;;;75.35;49.45;;;13.30;99.90;;;;;;4769936;30;20586;-84
2022/09/24 02:49:58;;;;;;;92.40;54.65;;;13.20;99.90;;;;;;4768905;30;20142;-84
2022/09/24 02:52:23;;;;;;;92.68;55.92;;;13.30;99.90;;;;;;4768804;30;20047;-83
2022/09/24 02:54:49;;;;;;;116.00;62.55;;;13.30;99.90;;;;;;4769743;30;20063;-84
2022/09/24 02:57:17;;;;;;;96.60;56.72;;;13.20;99.90;;;;;;4785211;29;20065;-84
2022/09/24 02:59:43;;;;;;;97.97;55.70;;;13.30;99.90;;;;;;4787153;29;20051;-84
2022/09/24 03:02:09;;;;;;;94.45;55.58;;;13.30;99.90;;;;;;4787959;29;20549;-83
2022/09/24 03:04:35;;;;;;;98.00;54.53;;;13.30;99.90;;;;;;4788306;29;20055;-82
2022/09/24 03:07:00;;;;;;;103.10;53.63;;;13.20;99.90;;;;;;4786154;29;20073;-84
2022/09/24 03:09:26;;;;;;;110.00;53.60;;;13.30;99.90;;;;;;4788118;29;20058;-83
2022/09/24 03:11:51;;;;;;;98.72;49.88;;;13.20;99.90;;;;;;4787704;29;20476;-84
2022/09/24 03:14:17;;;;;;;78.00;43.63;;;13.30;99.90;;;;;;4787308;29;20058;-83
2022/09/24 03:16:43;;;;;;;71.75;43.00;;;13.20;99.90;;;;;;4787463;29;20133;-84
2022/09/24 03:19:09;;;;;;;67.80;42.45;;;13.20;99.90;;;;;;4787793;29;20504;-83
2022/09/24 03:21:35;;;;;;;81.13;45.03;;;13.30;99.90;;;;;;4785988;29;20047;-83
2022/09/24 03:24:02;;;;;;;61.40;38.40;;;13.30;99.90;;;;;;4787573;29;20135;-83
2022/09/24 03:26:28;;;;;;;97.78;50.10;;;13.30;99.90;;;;;;4787162;29;20065;-83
2022/09/24 03:28:54;;;;;;;58.80;39.67;;;13.30;99.90;;;;;;4786316;29;20556;-83
2022/09/24 03:31:22;;;;;;;56.22;37.97;;;13.30;99.90;;;;;;4786792;29;20070;-83
2022/09/24 03:33:49;;;;;;;69.28;41.00;;;13.30;99.90;;;;;;4786425;29;20121;-83
2022/09/24 03:36:23;;;;;;;61.55;36.85;;;13.30;99.90;;;;;;4785567;29;20142;-83
2022/09/24 03:38:53;;;;;;;44.95;25.42;;;13.30;99.90;;;;;;4786726;29;20051;-83
2022/09/24 03:41:18;;;;;;;19.70;14.10;;;13.20;99.90;;;;;;4786479;29;20504;-83
2022/09/24 03:43:44;;;;;;;29.73;18.33;;;13.20;99.90;;;;;;4785758;29;20061;-83
2022/09/24 03:46:11;;;;;;;26.90;17.45;;;13.30;99.90;;;;;;4783669;29;20086;-82
2022/09/24 03:48:38;;;;;;;19.00;13.98;;;13.20;99.90;;;;;;4768638;30;20051;-84
2022/09/24 03:51:06;;;;;;;21.10;14.13;;;13.10;99.90;;;;;;4753623;30;20047;-83
2022/09/24 03:53:32;;;;;;;18.83;13.88;;;13.10;99.90;;;;;;4754299;30;20047;-83
2022/09/24 03:56:01;;;;;;;16.98;10.57;;;13.10;99.90;;;;;;4767729;30;20705;-83
2022/09/24 03:58:27;;;;;;;16.08;10.32;;;13.20;99.90;;;;;;4768747;30;20059;-83
2022/09/24 04:00:54;;;;;;;18.70;12.43;;;13.10;99.90;;;;;;4768166;30;20043;-83
2022/09/24 04:03:21;;;;;;;22.13;14.60;;;13.20;99.90;;;;;;4768366;30;20130;-83
2022/09/24 04:05:47;;;;;;;25.00;14.95;;;13.20;99.90;;;;;;4752586;30;20058;-83
2022/09/24 04:08:13;;;;;;;26.75;16.27;;;13.20;99.90;;;;;;4769260;30;20063;-83
2022/09/24 04:10:39;;;;;;;24.48;15.57;;;13.20;99.90;;;;;;4767646;30;20481;-83
2022/09/24 04:13:05;;;;;;;24.02;15.85;;;13.20;99.90;;;;;;4783858;30;20516;-83
2022/09/24 04:15:32;;;;;;;41.95;21.25;;;13.20;99.90;;;;;;4783722;30;20062;-83
2022/09/24 04:17:58;;;;;;;34.45;20.48;;;13.20;99.90;;;;;;4767114;30;20055;-83
2022/09/24 04:20:27;;;;;;;24.30;16.55;;;13.10;99.90;;;;;;4752701;30;20098;-83
2022/09/24 04:22:54;;;;;;;24.52;17.25;;;13.10;99.90;;;;;;4768073;30;20047;-83
2022/09/24 04:25:22;;;;;;;36.85;20.40;;;13.20;99.90;;;;;;4783932;29;20509;-83
2022/09/24 04:27:53;;;;;;;25.63;17.55;;;13.20;99.90;;;;;;4785658;29;20135;-83
2022/09/24 04:30:19;;;;;;;47.00;21.85;;;13.20;99.90;;;;;;4786079;29;20422;-83
2022/09/24 04:32:45;;;;;;;96.50;27.85;;;13.10;99.90;;;;;;4785193;29;20054;-83
2022/09/24 04:35:11;;;;;;;36.75;21.23;;;13.30;99.90;;;;;;4785260;29;20504;-82
2022/09/24 04:37:37;;;;;;;29.98;19.75;;;13.30;99.90;;;;;;4786201;29;20054;-83
2022/09/24 04:40:05;;;;;;;36.30;18.73;;;13.10;99.90;;;;;;4785141;29;20146;-83
2022/09/24 04:42:31;;;;;;;34.90;17.98;;;13.30;99.90;;;;;;4786432;29;20077;-83
2022/09/24 04:44:57;;;;;;;33.30;15.48;;;13.30;99.90;;;;;;4784266;29;20492;-82
2022/09/24 04:47:24;;;;;;;26.73;12.25;;;13.20;99.90;;;;;;4785781;29;20043;-82
2022/09/24 04:49:50;;;;;;;28.05;12.73;;;13.30;99.90;;;;;;4784328;29;20055;-82
2022/09/24 04:52:16;;;;;;;24.58;11.15;;;13.30;99.90;;;;;;4784169;29;20058;-83
2022/09/24 04:54:45;;;;;;;29.65;9.38;;;13.30;99.90;;;;;;4785166;29;20054;-83
2022/09/24 04:57:12;;;;;;;24.08;5.28;;;13.20;99.90;;;;;;4785508;29;20138;-83
2022/09/24 04:59:38;;;;;;;27.00;5.55;;;13.30;99.90;;;;;;4784827;29;20069;-82
2022/09/24 05:02:07;;;;;;;28.48;4.40;;;13.20;99.90;;;;;;4784898;29;20504;-82
2022/09/24 05:04:34;;;;;;;25.55;3.83;;;13.30;99.90;;;;;;4785850;29;20465;-83
2022/09/24 05:07:00;;;;;;;17.02;3.33;;;13.30;99.90;;;;;;4783547;29;20050;-82
2022/09/24 05:09:26;;;;;;;19.48;3.17;;;13.30;99.90;;;;;;4785446;29;20134;-83
2022/09/24 05:11:52;;;;;;;24.75;3.55;;;13.20;99.90;;;;;;4784543;29;20088;-83
2022/09/24 05:14:18;;;;;;;22.40;2.85;;;13.20;99.90;;;;;;4781720;30;20078;-83
2022/09/24 05:16:43;;;;;;;19.67;2.72;;;13.10;99.90;;;;;;4767158;30;20501;-82
2022/09/24 05:19:09;;;;;;;14.82;2.20;;;13.10;99.90;;;;;;4766740;30;20413;-82
2022/09/24 05:21:35;;;;;;;18.73;2.33;;;13.20;99.90;;;;;;4766004;30;20059;-82
2022/09/24 05:24:00;;;;;;;23.15;2.17;;;13.10;99.90;;;;;;4752334;30;20515;-83
2022/09/24 05:29:11;;;;;;;16.10;2.08;;;13.10;99.90;;;;;;4766383;30;20047;-83
2022/09/24 05:31:36;;;;;;;20.35;2.30;;;13.20;99.90;;;;;;4766942;30;20138;-82
2022/09/24 05:34:02;;;;;;;21.85;2.22;;;13.10;99.90;;;;;;4766017;30;20188;-83
2022/09/24 05:36:28;;;;;;;29.13;3.03;;;13.20;99.90;;;;;;4751267;30;20154;-83
2022/09/24 05:38:54;;;;;;;22.33;1.95;;;13.10;99.90;;;;;;4766151;30;20335;-83
2022/09/24 05:41:20;;;;;;;19.73;2.38;;;13.10;99.90;;;;;;4765783;30;20132;-82
2022/09/24 05:43:46;;;;;;;19.55;2.50;;;13.20;99.90;;;;;;4767142;30;20055;-83
2022/09/24 05:46:12;;;;;;;15.27;2.00;;;13.10;99.90;;;;;;4769150;29;20092;-83
2022/09/24 05:48:38;;;;;;;22.00;2.38;;;13.20;99.90;;;;;;4800755;29;20076;-83
2022/09/24 05:51:04;;;;;;;24.27;2.90;;;13.20;99.90;;;;;;4798740;29;20445;-83
2022/09/24 05:53:30;;;;;;;16.73;2.20;;;13.20;99.90;;;;;;4784807;29;20544;-83
2022/09/24 05:55:57;;;;;;;30.00;3.00;;;13.20;99.90;;;;;;4783727;29;20468;-83
2022/09/24 05:58:23;;;;;;;18.27;2.53;;;13.30;99.90;;;;;;4784745;29;20408;-83
2022/09/24 06:00:50;;;;;;;25.20;2.80;;;13.20;99.90;;;;;;4769462;29;20054;-83
2022/09/24 06:03:17;;;;;;;26.35;3.30;;;13.30;99.90;;;;;;4779425;29;20068;-83
2022/09/24 06:05:47;;;;;;;23.13;2.42;;;13.30;99.90;;;;;;4774235;29;20050;-83
2022/09/24 06:08:14;;;;;;;21.55;2.10;;;13.40;99.90;;;;;;4773363;29;20042;-83
2022/09/24 06:10:41;;;;;;;21.00;2.60;;;13.30;99.90;;;;;;4773985;29;20051;-83
2022/09/24 06:13:10;;;;;;;22.90;2.80;;;13.40;99.90;;;;;;4773043;29;20117;-82
2022/09/24 06:15:37;;;;;;;21.42;2.67;;;13.30;99.90;;;;;;4768628;29;20062;-82
2022/09/24 06:18:04;;;;;;;18.90;2.60;;;13.30;99.90;;;;;;4775283;29;20451;-83
2022/09/24 06:20:31;;;;;;;18.65;2.47;;;13.40;99.90;;;;;;4773020;29;20205;-83
2022/09/24 06:22:56;;;;;;;18.52;3.03;;;13.50;99.90;;;;;;4777770;29;20196;-83
2022/09/24 06:25:24;;;;;;;25.25;3.03;;;13.40;99.90;;;;;;4774191;29;20130;-83
2022/09/24 06:27:59;;;;;;;23.50;2.53;;;13.40;99.90;;;;;;4774822;29;20047;-83
2022/09/24 06:30:26;;;;;;;21.40;3.25;;;13.50;99.90;;;;;;4774301;29;20058;-82
2022/09/24 06:32:53;;;;;;;19.50;2.63;;;13.50;99.90;;;;;;4772847;30;20054;-84
2022/09/24 06:35:19;;;;;;;17.98;2.13;;;13.50;99.90;;;;;;4774329;29;20519;-83
2022/09/24 06:37:48;;;;;;;16.40;2.85;;;13.50;99.90;;;;;;4797816;29;20536;-84
2022/09/24 06:40:14;;;;;;;19.08;2.58;;;13.60;99.90;;;;;;4782327;29;20043;-86
2022/09/24 06:42:40;;;;;;;21.77;2.33;;;13.50;99.90;;;;;;4783773;29;20575;-83
2022/09/24 06:45:06;;;;;;;15.80;2.28;;;13.50;99.90;;;;;;4783374;29;20180;-84
2022/09/24 06:47:32;;;;;;;20.88;2.17;;;13.50;99.90;;;;;;4784581;29;20138;-84
2022/09/24 06:49:57;;;;;;;17.33;2.53;;;13.60;99.90;;;;;;4768258;29;20139;-84
2022/09/24 06:52:23;;;;;;;18.73;2.25;;;13.60;99.90;;;;;;4782987;29;20133;-83
2022/09/24 06:54:49;;;;;;;18.05;2.38;;;13.60;99.90;;;;;;4783788;29;20058;-83
2022/09/24 06:57:15;;;;;;;18.63;1.92;;;13.60;99.90;;;;;;4784388;29;20051;-83
2022/09/24 06:59:41;;;;;;;26.80;2.85;;;13.70;99.90;;;;;;4783466;29;20416;-83
2022/09/24 07:02:09;;;;;;;27.30;2.90;;;13.60;99.90;;;;;;4769199;29;20111;-83
2022/09/24 07:04:35;;;;;;;21.77;2.53;;;13.60;99.90;;;;;;4784045;29;20051;-83
2022/09/24 07:09:48;;;;;;;15.45;2.50;;;13.70;99.90;;;;;;4764956;30;20484;-83
2022/09/24 07:12:14;;;;;;;15.73;2.00;;;13.70;99.90;;;;;;4751064;30;20062;-83
2022/09/24 07:14:40;;;;;;;17.20;2.15;;;13.70;99.90;;;;;;4765390;30;20055;-82
2022/09/24 07:17:06;;;;;;;21.80;2.75;;;13.70;99.90;;;;;;4779861;29;20051;-83
2022/09/24 07:19:31;;;;;;;18.92;2.35;;;13.80;99.90;;;;;;4786314;29;20058;-84
2022/09/24 07:21:57;;;;;;;15.05;2.10;;;13.70;99.90;;;;;;4786022;29;20051;-83
2022/09/24 07:24:23;;;;;;;19.90;2.80;;;13.70;99.90;;;;;;4786529;29;20046;-83
2022/09/24 07:26:49;;;;;;;16.95;2.03;;;13.80;99.90;;;;;;4803861;29;20054;-83
2022/09/24 07:29:15;;;;;;;12.55;1.95;;;13.70;99.90;;;;;;4804259;29;20061;-83
2022/09/24 07:31:41;;;;;;;13.70;1.40;;;13.70;99.90;;;;;;4804407;29;20057;-83
2022/09/24 07:34:07;;;;;;;11.77;1.50;;;13.80;99.90;;;;;;4803799;29;20125;-83
2022/09/24 07:36:33;;;;;;;5.40;1.17;;;13.80;99.90;;;;;;4804131;29;20064;-83
2022/09/24 07:39:00;;;;;;;9.90;1.48;;;13.70;99.90;;;;;;4804617;29;20058;-83
2022/09/24 07:41:26;;;;;;;7.85;1.10;;;13.80;99.90;;;;;;4803557;29;20073;-84
2022/09/24 07:43:54;;;;;;;9.50;1.30;;;13.70;99.90;;;;;;4804846;29;20099;-83
2022/09/24 07:46:20;;;;;;;8.98;1.55;;;13.70;99.90;;;;;;4803865;29;20062;-83
2022/09/24 07:48:48;;;;;;;11.05;1.60;;;13.70;99.90;;;;;;4803236;29;20048;-84
2022/09/24 07:51:14;;;;;;;9.40;1.35;;;13.70;99.90;;;;;;4803262;29;20329;-83
2022/09/24 07:53:40;;;;;;;8.90;1.10;;;13.80;99.90;;;;;;4804434;29;20054;-83
2022/09/24 07:56:05;;;;;;;12.40;1.40;;;13.80;99.90;;;;;;4803682;29;20058;-83
2022/09/24 07:58:31;;;;;;;8.32;1.42;;;13.80;99.90;;;;;;4804167;29;20054;-84
2022/09/24 08:00:58;;;;;;;13.02;1.23;;;13.90;99.90;;;;;;4803875;29;20141;-84
2022/09/24 08:03:24;;;;;;;11.93;1.63;;;13.90;99.90;;;;;;4803179;29;20053;-84
2022/09/24 08:05:55;;;;;;;12.80;2.00;;;13.90;99.90;;;;;;4803204;29;20055;-84
2022/09/24 08:08:21;;;;;;;10.20;1.15;;;13.90;99.90;;;;;;4820583;29;20069;-83
2022/09/24 08:10:46;;;;;;;11.65;1.83;;;13.90;99.90;;;;;;4803417;29;20499;-84
2022/09/24 08:13:12;;;;;;;11.95;1.95;;;13.90;99.90;;;;;;4804110;29;20056;-84
2022/09/24 08:15:45;;;;;;;18.85;2.25;;;14.00;99.90;;;;;;4803552;29;20058;-84
2022/09/24 08:18:11;;;;;;;;;;;14.00;99.90;;;;;;4789754;29;20055;-84
2022/09/24 08:20:38;;;;;;;13.55;2.03;;;14.10;99.90;;;;;;4803175;29;20000;-84
2022/09/24 08:23:09;;;;;;;15.82;2.20;;;14.10;99.90;;;;;;4803749;29;20069;-84
2022/09/24 08:25:35;;;;;;;13.23;2.25;;;14.20;99.90;;;;;;4803055;29;20077;-84
2022/09/24 08:28:03;;;;;;;15.32;3.08;;;14.30;99.90;;;;;;4802650;29;20470;-83
2022/09/24 08:30:29;;;;;;;20.13;2.05;;;14.30;99.90;;;;;;4802537;29;20161;-84
2022/09/24 08:32:56;;;;;;;17.25;2.45;;;14.30;99.90;;;;;;4803646;29;20125;-84
2022/09/24 08:35:22;;;;;;;14.88;1.77;;;14.40;99.90;;;;;;4802793;29;20050;-83
2022/09/24 08:37:48;;;;;;;14.70;1.67;;;14.40;99.90;;;;;;4803183;29;20054;-84
2022/09/24 08:40:20;;;;;;;18.38;2.60;;;14.50;99.90;;;;;;4803541;29;20050;-84
2022/09/24 08:43:00;;;;;;;21.48;2.55;;;14.50;99.90;;;;;;4803599;29;20097;-83
2022/09/24 08:48:30;;;;;;;20.02;2.30;;;14.50;99.90;;;;;;4803199;29;20054;-83
2022/09/24 08:51:01;;;;;;;14.48;2.10;;;14.60;99.90;;;;;;4801922;29;20054;-84
2022/09/24 08:53:31;;;;;;;18.50;2.13;;;14.70;99.90;;;;;;4803323;29;20537;-83
2022/09/24 08:55:59;;;;;;;17.73;2.45;;;14.70;99.90;;;;;;4802858;29;20127;-83
2022/09/24 08:58:47;;;;;;;18.83;2.95;;;14.80;99.90;;;;;;4802730;29;20057;-83
2022/09/24 09:01:21;;;;;;;16.63;2.20;;;14.80;99.90;;;;;;4802977;29;20073;-83
2022/09/24 09:04:03;;;;;;;19.85;2.10;;;14.70;99.90;;;;;;4799738;29;20067;-84
2022/09/24 09:06:42;;;;;;;16.13;2.17;;;14.70;99.90;;;;;;4798017;29;20058;-83
2022/09/24 09:09:14;;;;;;;19.83;2.53;;;14.80;99.90;;;;;;4799789;29;20583;-83
2022/09/24 09:11:45;;;;;;;18.45;2.13;;;14.80;99.90;;;;;;4784888;29;20059;-84
2022/09/24 09:14:20;;;;;;;20.33;2.10;;;14.70;99.90;;;;;;4784882;29;20124;-83
2022/09/24 09:17:01;;;;;;;13.45;2.17;;;14.70;99.90;;;;;;4784716;29;20082;-83
2022/09/24 09:19:33;;;;;;;12.38;2.28;;;14.60;99.90;;;;;;4784951;29;20357;-84
2022/09/24 09:22:06;;;;;;;17.15;2.00;;;14.60;99.90;;;;;;4799145;29;20078;-84
2022/09/24 09:24:48;;;;;;;17.95;1.80;;;14.50;99.90;;;;;;4799868;29;20062;-84
2022/09/24 09:27:16;;;;;;;12.40;2.00;;;14.50;99.90;;;;;;4799211;29;20528;-83
2022/09/24 09:29:47;;;;;;;16.98;2.15;;;14.50;99.90;;;;;;4799944;29;20523;-83
2022/09/24 09:32:19;;;;;;;9.68;1.50;;;14.50;99.90;;;;;;4799378;29;20043;-83
2022/09/24 09:35:10;;;;;;;9.88;1.83;;;14.50;99.90;;;;;;4798132;29;20047;-84
2022/09/24 09:37:49;;;;;;;11.07;1.40;;;14.40;99.90;;;;;;4799477;29;20153;-84
2022/09/24 09:40:29;;;;;;;14.68;1.95;;;14.30;99.90;;;;;;4798370;29;20642;-83
2022/09/24 09:43:07;;;;;;;16.65;1.70;;;14.10;99.90;;;;;;4784805;29;20054;-84
2022/09/24 09:46:06;;;;;;;15.45;1.75;;;14.10;99.90;;;;;;4807018;29;20054;-83
2022/09/24 09:48:50;;;;;;;11.65;1.35;;;14.10;99.90;;;;;;4802244;29;20399;-83
2022/09/24 09:51:20;;;;;;;7.82;1.00;;;14.10;99.90;;;;;;4801718;29;20093;-83
2022/09/24 09:53:55;;;;;;;7.57;1.05;;;14.10;99.90;;;;;;4801869;29;20133;-83
2022/09/24 09:56:26;;;;;;;10.63;0.90;;;14.20;99.90;;;;;;4801953;29;20119;-83
2022/09/24 09:59:05;;;;;;;8.73;1.17;;;14.20;99.90;;;;;;4802349;29;20042;-83
2022/09/24 10:01:34;;;;;;;7.68;1.13;;;14.20;99.90;;;;;;4801481;29;20089;-83
2022/09/24 10:04:03;;;;;;;10.30;1.30;;;14.20;99.90;;;;;;4802695;29;20050;-84
2022/09/24 10:06:31;;;;;;;9.05;0.95;;;14.30;99.90;;;;;;4802003;29;20050;-83
2022/09/24 10:09:19;;;;;;;10.27;1.63;;;14.20;99.90;;;;;;4801853;29;20141;-83
2022/09/24 10:11:46;;;;;;;11.05;1.05;;;14.20;99.90;;;;;;4801434;29;20480;-82
2022/09/24 10:14:15;;;;;;;9.00;1.25;;;14.20;99.90;;;;;;4819011;29;20054;-83
2022/09/24 10:16:43;;;;;;;11.10;1.38;;;14.30;99.90;;;;;;4800759;29;20132;-83
2022/09/24 10:19:22;;;;;;;11.10;1.88;;;14.20;99.90;;;;;;4801982;29;20058;-83
2022/09/24 10:21:49;;;;;;;7.03;1.05;;;14.20;99.90;;;;;;4801242;29;20126;-83
2022/09/24 10:24:20;;;;;;;6.50;1.10;;;14.30;99.90;;;;;;4801286;29;20050;-82
2022/09/24 10:26:47;;;;;;;10.77;0.95;;;14.30;99.90;;;;;;4801787;29;20528;-83
2022/09/24 10:32:05;;;;;;;5.78;0.93;;;14.30;99.90;;;;;;4802100;29;20410;-83
2022/09/24 10:34:31;;;;;;;10.55;1.10;;;14.40;99.90;;;;;;4799423;29;20050;-83
2022/09/24 10:37:00;;;;;;;10.85;1.20;;;14.40;99.90;;;;;;4781980;29;20055;-82
2022/09/24 10:39:27;;;;;;;10.80;1.40;;;14.40;99.90;;;;;;4784359;29;20136;-82
2022/09/24 10:41:55;;;;;;;8.50;1.30;;;14.40;99.90;;;;;;4783461;29;20055;-82
2022/09/24 10:44:23;;;;;;;12.98;1.58;;;14.50;99.90;;;;;;4783580;29;20058;-83
2022/09/24 10:47:16;;;;;;;10.57;1.17;;;14.50;99.90;;;;;;4768471;29;20064;-83
2022/09/24 10:49:42;;;;;;;7.70;0.75;;;14.50;99.90;;;;;;4783905;29;20442;-83
2022/09/24 10:52:21;;;;;;;6.38;1.08;;;14.50;99.90;;;;;;4786639;29;20130;-83
2022/09/24 10:55:02;;;;;;;9.27;0.88;;;14.60;99.90;;;;;;4787234;29;20058;-84
2022/09/24 10:57:28;;;;;;;11.98;1.38;;;14.60;99.90;;;;;;4787335;29;20051;-82
2022/09/24 11:00:10;;;;;;;8.70;0.90;;;14.70;99.90;;;;;;4794673;29;20050;-88
2022/09/24 11:02:38;;;;;;;8.30;1.13;;;14.70;99.90;;;;;;4788454;29;20079;-87
2022/09/24 11:05:14;;;;;;;8.88;1.30;;;14.70;99.90;;;;;;4787752;29;20130;-86
2022/09/24 11:08:06;;;;;;;6.15;0.75;;;14.70;99.90;;;;;;4773209;29;20104;-87
2022/09/24 11:10:50;;;;;;;8.05;1.08;;;14.70;99.90;;;;;;4773514;29;20047;-86
2022/09/24 11:13:31;;;;;;;7.18;1.05;;;14.70;99.90;;;;;;4795552;29;20146;-87
2022/09/24 11:16:09;;;;;;;6.47;0.90;;;14.70;99.90;;;;;;4795305;29;20566;-86
2022/09/24 11:18:54;;;;;;;7.82;1.38;;;14.70;99.90;;;;;;4806223;29;20051;-86
2022/09/24 11:21:37;;;;;;;11.30;0.90;;;14.70;99.90;;;;;;4785140;29;20082;-85
2022/09/24 11:24:24;;;;;;;6.18;1.00;;;14.70;99.90;;;;;;4790731;29;20445;-87
2022/09/24 11:27:17;;;;;;;6.47;1.08;;;14.70;99.90;;;;;;4803482;29;20058;-86
2022/09/24 11:29:56;;;;;;;6.85;1.30;;;14.70;99.90;;;;;;4803027;29;20062;-88
2022/09/24 11:33:04;;;;;;;7.75;0.80;;;14.70;99.90;;;;;;4802102;29;20047;-87
2022/09/24 11:35:40;;;;;;;6.45;0.90;;;14.70;99.90;;;;;;4806071;29;20050;-88
2022/09/24 11:38:17;;;;;;;9.40;1.40;;;14.70;99.90;;;;;;4806945;29;20090;-88
2022/09/24 11:41:01;;;;;;;9.48;1.02;;;14.60;99.90;;;;;;4804586;29;20568;-88
2022/09/24 11:43:47;;;;;;;10.57;1.15;;;14.60;99.90;;;;;;4791936;29;20062;-89
2022/09/24 11:46:12;;;;;;;6.30;0.88;;;14.60;99.90;;;;;;4806261;29;20104;-87
2022/09/24 11:48:55;;;;;;;8.23;1.23;;;14.60;99.90;;;;;;4806776;29;20082;-86
2022/09/24 11:51:28;;;;;;;7.88;1.60;;;14.60;99.90;;;;;;4804457;29;20051;-87
2022/09/24 11:54:01;;;;;;;;;;;14.60;99.90;;;;;;4805662;29;20047;-87
2022/09/24 11:56:28;;;;;;;9.57;1.63;;;14.60;99.90;;;;;;4790546;29;19958;-87
2022/09/24 11:59:04;;;;;;;11.27;1.52;;;14.50;99.90;;;;;;4805211;29;20149;-88
2022/09/24 12:01:34;;;;;;;10.57;1.60;;;14.50;99.90;;;;;;4805145;29;20062;-86
2022/09/24 12:04:15;;;;;;;11.82;1.15;;;14.50;99.90;;;;;;4789937;29;20077;-86
2022/09/24 12:07:04;;;;;;;11.98;1.17;;;14.50;99.90;;;;;;4789375;29;20061;-87
2022/09/24 12:09:37;;;;;;;8.35;1.15;;;14.50;99.90;;;;;;4789686;29;20084;-86
2022/09/24 12:12:08;;;;;;;17.92;1.38;;;14.50;99.90;;;;;;4790071;29;20510;-87
2022/09/24 12:14:48;;;;;;;10.15;1.27;;;14.50;99.90;;;;;;4790966;29;20047;-87
2022/09/24 12:17:20;;;;;;;11.20;1.15;;;14.50;99.90;;;;;;4790964;29;20046;-87
2022/09/24 12:19:52;;;;;;;10.23;1.37;;;14.50;99.90;;;;;;4789803;29;20050;-87
2022/09/24 12:22:19;;;;;;;9.77;1.52;;;14.50;99.90;;;;;;4804996;29;20061;-87
2022/09/24 12:24:51;;;;;;;7.22;0.90;;;14.50;99.90;;;;;;4789687;29;20170;-86
2022/09/24 12:27:24;;;;;;;7.30;1.20;;;14.40;99.90;;;;;;4789433;29;20551;-87
2022/09/24 12:33:13;;;;;;;9.27;0.98;;;14.40;99.90;;;;;;4805069;29;20471;-88
2022/09/24 12:35:47;;;;;;;8.60;0.98;;;14.40;99.90;;;;;;4805250;29;20046;-85
2022/09/24 12:38:17;;;;;;;6.95;0.82;;;14.40;99.90;;;;;;4805963;29;20039;-90
2022/09/24 12:40:49;;;;;;;9.48;1.05;;;14.40;99.90;;;;;;4804553;29;20042;-90
2022/09/24 12:43:25;;;;;;;12.73;0.90;;;14.40;99.90;;;;;;4801875;29;20047;-88
2022/09/24 12:46:02;;;;;;;7.55;0.85;;;14.40;99.90;;;;;;4787469;29;20499;-89
2022/09/24 12:48:30;;;;;;;6.28;1.00;;;14.40;99.90;;;;;;4797740;29;20134;-87
2022/09/24 12:50:59;;;;;;;8.40;0.77;;;14.40;99.90;;;;;;4803592;29;20925;-87
2022/09/24 12:53:33;;;;;;;5.97;1.13;;;14.40;99.90;;;;;;4796530;29;20054;-87
2022/09/24 12:56:00;;;;;;;13.43;1.60;;;14.40;99.90;;;;;;4786291;29;20062;-88
2022/09/24 12:58:40;;;;;;;9.82;1.35;;;14.30;99.90;;;;;;4770965;29;20066;-88
2022/09/24 13:01:33;;;;;;;7.38;1.23;;;14.30;99.90;;;;;;4771639;29;20163;-87
2022/09/24 13:04:13;;;;;;;11.73;1.10;;;14.30;99.90;;;;;;4785468;29;20544;-87
2022/09/24 13:06:40;;;;;;;6.22;1.08;;;14.30;99.90;;;;;;4804978;29;20136;-88
2022/09/24 13:09:33;;;;;;;8.13;1.00;;;14.30;99.90;;;;;;4790215;29;20118;-88